createdAt,value
2019-05-22T00:01:42.637Z,27.57
2019-05-22T00:04:50.840Z,27.37
2019-05-22T00:07:55.804Z,27.07
2019-05-22T00:10:59.528Z,27.40
2019-05-22T00:14:04.968Z,27.90
2019-05-22T00:17:10.441Z,27.50
2019-05-22T00:20:14.389Z,28.50
2019-05-22T00:23:18.545Z,28.77
2019-05-22T00:26:22.878Z,28.03
2019-05-22T00:29:28.483Z,28.87
2019-05-22T00:32:33.724Z,28.93
2019-05-22T00:35:38.513Z,30.33
2019-05-22T00:38:43.780Z,28.27
2019-05-22T00:41:50.823Z,29.00
2019-05-22T00:44:55.948Z,29.30
2019-05-22T00:48:00.376Z,29.70
2019-05-22T00:51:11.060Z,28.37
2019-05-22T00:54:16.496Z,29.47
2019-05-22T00:57:21.621Z,29.13
2019-05-22T01:00:34.886Z,28.97
2019-05-22T01:03:38.787Z,28.73
2019-05-22T01:06:44.506Z,28.60
2019-05-22T01:09:51.159Z,28.27
2019-05-22T01:12:58.568Z,28.93
2019-05-22T01:16:05.008Z,28.73
2019-05-22T01:19:09.344Z,27.13
2019-05-22T01:22:14.728Z,29.93
2019-05-22T01:25:20.795Z,28.20
2019-05-22T01:28:25.860Z,27.03
2019-05-22T01:31:36.894Z,27.90
2019-05-22T01:34:40.985Z,27.37
2019-05-22T01:37:45.094Z,28.33
2019-05-22T01:41:01.679Z,28.57
2019-05-22T01:44:06.959Z,28.43
2019-05-22T01:47:15.160Z,27.57
2019-05-22T01:50:41.635Z,28.33
2019-05-22T01:53:46.845Z,28.77
2019-05-22T01:56:51.601Z,29.17
2019-05-22T01:59:55.634Z,28.27
2019-05-22T02:03:00.635Z,28.80
2019-05-22T02:06:07.249Z,28.07
2019-05-22T02:09:24.151Z,29.30
2019-05-22T02:12:34.824Z,27.50
2019-05-22T02:15:38.648Z,29.30
2019-05-22T02:18:45.081Z,29.47
2019-05-22T02:21:49.308Z,29.20
2019-05-22T02:24:53.229Z,30.07
2019-05-22T02:27:58.829Z,30.30
2019-05-22T02:31:04.198Z,29.87
2019-05-22T02:34:08.125Z,28.90
2019-05-22T02:37:12.727Z,29.00
2019-05-22T02:40:35.152Z,30.27
2019-05-22T02:43:39.387Z,29.13
2019-05-22T02:46:43.887Z,28.13
2019-05-22T02:49:50.320Z,26.63
2019-05-22T02:52:54.428Z,27.40
2019-05-22T02:55:58.502Z,26.07
2019-05-22T02:59:06.710Z,25.53
2019-05-22T03:02:12.689Z,25.67
2019-05-22T03:05:17.891Z,26.47
2019-05-22T03:08:22.371Z,26.43
2019-05-22T03:11:35.170Z,25.93
2019-05-22T03:14:40.003Z,26.73
2019-05-22T03:17:45.456Z,25.57
2019-05-22T03:20:49.414Z,25.90
2019-05-22T03:23:53.426Z,25.37
2019-05-22T03:26:57.425Z,23.77
2019-05-22T03:30:01.719Z,23.00
2019-05-22T03:33:07.610Z,23.13
2019-05-22T03:36:15.513Z,22.87
2019-05-22T03:39:19.046Z,21.77
2019-05-22T03:42:23.004Z,23.60
2019-05-22T03:45:28.380Z,22.27
2019-05-22T03:48:37.731Z,23.43
2019-05-22T03:51:41.425Z,22.83
2019-05-22T03:54:47.056Z,22.10
2019-05-22T03:57:50.982Z,23.27
2019-05-22T04:00:56.499Z,20.90
2019-05-22T04:04:02.149Z,20.73
2019-05-22T04:07:08.089Z,20.23
2019-05-22T04:10:13.265Z,22.47
2019-05-22T04:13:17.074Z,22.30
2019-05-22T04:16:22.249Z,21.03
2019-05-22T04:19:25.745Z,22.37
2019-05-22T04:22:29.840Z,22.07
2019-05-22T04:25:33.681Z,24.90
2019-05-22T04:28:48.960Z,22.90
2019-05-22T04:32:06.827Z,23.70
2019-05-22T04:35:13.687Z,22.00
2019-05-22T04:38:18.140Z,25.13
2019-05-22T04:41:21.948Z,25.27
2019-05-22T04:44:26.562Z,28.80
2019-05-22T04:47:30.657Z,27.47
2019-05-22T04:50:34.287Z,26.67
2019-05-22T04:53:38.020Z,25.87
2019-05-22T04:56:41.647Z,25.93
2019-05-22T04:59:45.244Z,25.27
2019-05-22T05:02:48.821Z,27.70
2019-05-22T05:05:52.804Z,25.20
2019-05-22T05:08:57.312Z,26.33
2019-05-22T05:12:00.865Z,25.13
2019-05-22T05:15:06.769Z,26.83
2019-05-22T05:18:10.260Z,24.80
2019-05-22T05:21:13.857Z,23.43
2019-05-22T05:24:17.432Z,22.27
2019-05-22T05:27:20.975Z,20.40
2019-05-22T05:30:26.872Z,23.87
2019-05-22T05:33:32.241Z,23.23
2019-05-22T05:36:36.436Z,21.47
2019-05-22T05:39:43.997Z,19.97
2019-05-22T05:42:47.865Z,18.73
2019-05-22T05:45:52.691Z,19.03
2019-05-22T05:48:56.913Z,20.70
2019-05-22T05:52:00.473Z,22.80
2019-05-22T05:55:05.268Z,23.37
2019-05-22T05:58:29.684Z,20.90
2019-05-22T06:01:35.540Z,21.20
2019-05-22T06:04:39.486Z,22.43
2019-05-22T06:07:43.105Z,23.47
2019-05-22T06:11:02.165Z,19.83
2019-05-22T06:14:08.741Z,20.43
2019-05-22T06:17:44.254Z,19.33
2019-05-22T06:21:03.265Z,18.67
2019-05-22T06:24:20.177Z,17.83
2019-05-22T06:27:30.446Z,18.53
2019-05-22T06:30:44.764Z,20.87
2019-05-22T06:33:48.401Z,19.90
2019-05-22T06:36:52.029Z,19.33
2019-05-22T06:39:55.977Z,19.13
2019-05-22T06:43:18.985Z,19.10
2019-05-22T06:46:44.587Z,17.87
2019-05-22T06:49:51.138Z,20.67
2019-05-22T06:53:09.418Z,17.83
2019-05-22T06:56:12.800Z,18.47
2019-05-22T06:59:17.339Z,18.67
2019-05-22T07:02:22.821Z,18.97
2019-05-22T07:05:26.654Z,18.50
2019-05-22T07:08:30.115Z,18.80
2019-05-22T07:11:35.420Z,17.43
2019-05-22T07:14:43.427Z,18.37
2019-05-22T07:17:47.733Z,17.03
2019-05-22T07:20:52.821Z,17.27
2019-05-22T07:23:57.434Z,17.63
2019-05-22T07:27:22.610Z,17.33
2019-05-22T07:30:45.089Z,15.90
2019-05-22T07:33:49.786Z,16.87
2019-05-22T07:36:54.336Z,16.90
2019-05-22T07:39:58.134Z,15.70
2019-05-22T07:43:01.945Z,16.93
2019-05-22T07:46:05.945Z,15.97
2019-05-22T07:49:10.481Z,15.27
2019-05-22T07:52:14.544Z,14.63
2019-05-22T07:55:20.622Z,14.70
2019-05-22T07:58:26.597Z,13.60
2019-05-22T08:01:30.817Z,13.33
2019-05-22T08:04:34.804Z,13.93
2019-05-22T08:07:40.145Z,13.53
2019-05-22T08:10:44.934Z,13.67
2019-05-22T08:13:48.833Z,12.87
2019-05-22T08:16:53.065Z,12.63
2019-05-22T08:19:56.925Z,14.07
2019-05-22T08:23:01.203Z,12.50
2019-05-22T08:26:06.625Z,11.73
2019-05-22T08:29:10.360Z,12.53
2019-05-22T08:32:14.797Z,12.33
2019-05-22T08:35:19.279Z,11.77
2019-05-22T08:38:30.945Z,12.30
2019-05-22T08:41:37.480Z,11.43
2019-05-22T08:44:41.800Z,11.27
2019-05-22T08:47:45.629Z,10.40
2019-05-22T08:50:50.173Z,10.77
2019-05-22T08:53:54.018Z,9.90
2019-05-22T08:56:58.206Z,10.13
2019-05-22T09:00:02.018Z,10.00
2019-05-22T09:03:05.948Z,9.47
2019-05-22T09:06:09.673Z,9.10
2019-05-22T09:09:13.570Z,8.40
2019-05-22T09:12:17.174Z,9.07
2019-05-22T09:15:21.519Z,8.63
2019-05-22T09:18:25.991Z,9.27
2019-05-22T09:21:30.546Z,8.20
2019-05-22T09:24:34.573Z,8.07
2019-05-22T09:27:38.429Z,8.80
2019-05-22T09:30:41.954Z,8.10
2019-05-22T09:33:45.444Z,8.63
2019-05-22T09:36:48.954Z,7.87
2019-05-22T09:39:52.644Z,7.40
2019-05-22T09:42:56.286Z,7.87
2019-05-22T09:46:00.394Z,7.17
2019-05-22T09:49:04.250Z,6.27
2019-05-22T09:52:09.249Z,7.73
2019-05-22T09:55:13.219Z,7.47
2019-05-22T09:58:16.684Z,7.27
2019-05-22T10:01:20.568Z,6.17
2019-05-22T10:04:24.293Z,5.90
2019-05-22T10:07:28.285Z,5.37
2019-05-22T10:10:32.121Z,5.63
2019-05-22T10:13:36.099Z,4.67
2019-05-22T10:16:39.888Z,4.50
2019-05-22T10:19:43.729Z,4.23
2019-05-22T10:22:47.263Z,4.57
2019-05-22T10:25:51.886Z,5.73
2019-05-22T10:28:56.040Z,4.50
2019-05-22T10:31:59.495Z,5.17
2019-05-22T10:35:03.148Z,5.50
2019-05-22T10:38:07.289Z,4.77
2019-05-22T10:41:11.649Z,5.07
2019-05-22T10:44:15.200Z,5.70
2019-05-22T10:47:19.126Z,6.10
2019-05-22T10:50:24.056Z,5.80
2019-05-22T10:53:34.166Z,5.93
2019-05-22T10:56:36.113Z,5.77
2019-05-22T10:59:40.769Z,6.17
2019-05-22T11:02:44.785Z,5.97
2019-05-22T11:06:05.759Z,5.87
2019-05-22T11:08:54.036Z,6.00
2019-05-22T11:11:57.954Z,6.37
2019-05-22T11:15:02.014Z,6.73
2019-05-22T11:18:06.409Z,6.23
2019-05-22T11:21:10.316Z,6.70
2019-05-22T11:24:14.137Z,6.87
2019-05-22T11:27:17.853Z,8.00
2019-05-22T11:30:21.923Z,8.20
2019-05-22T11:33:25.757Z,8.80
2019-05-22T11:36:29.847Z,8.80
2019-05-22T11:39:39.535Z,8.50
2019-05-22T11:42:40.809Z,9.53
2019-05-22T11:45:45.519Z,9.63
2019-05-22T11:48:49.768Z,9.40
2019-05-22T11:51:53.413Z,9.30
2019-05-22T11:54:57.249Z,8.87
2019-05-22T11:58:00.973Z,8.37
2019-05-22T12:01:34.807Z,8.50
2019-05-22T12:04:47.894Z,9.40
2019-05-22T12:07:46.148Z,9.07
2019-05-22T12:10:51.456Z,9.33
2019-05-22T12:13:55.018Z,9.30
2019-05-22T12:16:59.141Z,9.50
2019-05-22T12:20:04.098Z,9.40
2019-05-22T12:23:07.729Z,10.70
2019-05-22T12:26:12.161Z,10.50
2019-05-22T12:29:17.473Z,12.17
2019-05-22T12:32:22.040Z,11.30
2019-05-22T12:35:27.645Z,10.97
2019-05-22T12:38:32.881Z,10.13
2019-05-22T12:41:37.580Z,10.40
2019-05-22T12:44:41.605Z,9.53
2019-05-22T12:47:45.434Z,9.60
2019-05-22T12:50:49.463Z,10.03
2019-05-22T12:53:53.364Z,10.10
2019-05-22T12:56:57.197Z,9.33
2019-05-22T13:00:02.814Z,9.93
2019-05-22T13:03:09.212Z,9.43
2019-05-22T13:06:13.305Z,9.20
2019-05-22T13:09:17.029Z,8.17
2019-05-22T13:12:21.327Z,8.30
2019-05-22T13:15:25.688Z,8.27
2019-05-22T13:18:30.202Z,8.47
2019-05-22T13:21:35.165Z,9.17
2019-05-22T13:24:39.872Z,8.97
2019-05-22T13:27:44.822Z,8.57
2019-05-22T13:30:53.021Z,8.47
2019-05-22T13:33:58.927Z,8.30
2019-05-22T13:37:02.642Z,8.53
2019-05-22T13:40:26.581Z,8.80
2019-05-22T13:43:15.876Z,7.60
2019-05-22T13:46:19.836Z,8.53
2019-05-22T13:49:23.679Z,7.73
2019-05-22T13:52:28.173Z,7.80
2019-05-22T13:55:33.213Z,7.90
2019-05-22T13:58:36.909Z,7.57
2019-05-22T14:01:40.603Z,7.97
2019-05-22T14:04:44.729Z,7.17
2019-05-22T14:07:48.628Z,7.43
2019-05-22T14:10:53.825Z,7.73
2019-05-22T14:13:58.163Z,7.90
